Time;durP1;ratioP1;P1;durP2;ratioP2;P2;SDS_P1;SDS_P2;PMS_P1;PMS_P2;Temp;Humidity;BMP_temperature;BMP_pressure;BME280_temperature;BME280_humidity;BME280_pressure;Samples;Min_cycle;Max_cycle;Signal;HPM_P1;HPM_P2
2022/10/01 00:02:10;;;;;;;0.20;0.20;;;7.90;99.90;;;;;;5032750;28;20226;-79
2022/10/01 00:04:37;;;;;;;0.40;0.40;;;7.90;99.90;;;;;;5031170;28;20992;-79
2022/10/01 00:07:06;;;;;;;0.10;0.10;;;7.90;99.90;;;;;;5032534;28;20207;-79
2022/10/01 00:09:31;;;;;;;0.30;0.10;;;7.90;99.90;;;;;;5031407;28;20178;-79
2022/10/01 00:11:58;;;;;;;0.40;0.40;;;7.90;99.90;;;;;;5032055;28;20186;-79
2022/10/01 00:14:25;;;;;;;0.27;0.13;;;7.90;99.90;;;;;;5032156;28;20194;-80
2022/10/01 00:16:50;;;;;;;0.20;0.20;;;7.90;99.90;;;;;;5030853;28;20206;-79
2022/10/01 00:19:16;;;;;;;0.60;0.43;;;7.80;99.90;;;;;;5031627;28;20678;-79
2022/10/01 00:21:41;;;;;;;0.30;0.23;;;7.90;99.90;;;;;;5032404;28;20255;-79
2022/10/01 00:24:10;;;;;;;0.10;0.10;;;8.00;99.90;;;;;;5033862;28;20205;-79
2022/10/01 00:26:37;;;;;;;0.30;0.30;;;8.10;99.90;;;;;;5034245;28;20212;-79
2022/10/01 00:29:05;;;;;;;0.13;0.13;;;8.20;99.90;;;;;;5031914;28;20183;-79
2022/10/01 00:31:31;;;;;;;0.40;0.40;;;8.40;99.90;;;;;;5030014;28;20183;-79
2022/10/01 00:33:59;;;;;;;0.20;0.20;;;8.40;99.90;;;;;;5032781;28;20187;-79
2022/10/01 00:36:25;;;;;;;0.40;0.27;;;8.50;99.90;;;;;;5032156;28;20227;-79
2022/10/01 00:38:51;;;;;;;0.17;0.17;;;8.50;99.90;;;;;;5030642;28;20663;-79
2022/10/01 00:41:17;;;;;;;0.63;0.60;;;8.50;99.90;;;;;;5028680;28;20217;-79
2022/10/01 00:43:46;;;;;;;0.60;0.50;;;8.40;99.90;;;;;;5032653;28;20561;-79
2022/10/01 00:46:14;;;;;;;0.20;0.20;;;8.30;99.90;;;;;;5032191;28;20219;-79
2022/10/01 00:48:56;;;;;;;0.20;0.20;;;8.20;99.90;;;;;;5030423;28;20188;-79
2022/10/01 00:51:25;;;;;;;0.63;0.43;;;8.20;99.90;;;;;;5032730;28;20195;-79
2022/10/01 00:53:51;;;;;;;1.33;0.60;;;8.10;99.90;;;;;;5031254;28;20986;-79
2022/10/01 00:56:17;;;;;;;0.30;0.30;;;8.30;99.90;;;;;;5030443;28;20216;-79
2022/10/01 00:58:43;;;;;;;0.50;0.40;;;8.20;99.90;;;;;;5031647;28;20228;-80
2022/10/01 01:01:09;;;;;;;2.73;0.33;;;8.30;99.90;;;;;;5026219;28;20185;-79
2022/10/01 01:03:34;;;;;;;0.20;0.20;;;8.30;99.90;;;;;;5028280;28;20211;-79
2022/10/01 01:06:00;;;;;;;0.20;0.20;;;8.40;99.90;;;;;;5027866;28;20186;-79
2022/10/01 01:08:25;;;;;;;0.30;0.30;;;8.50;99.90;;;;;;5031820;28;20183;-79
2022/10/01 01:11:05;;;;;;;0.37;0.37;;;8.50;99.90;;;;;;5032200;28;20188;-79
2022/10/01 01:13:53;;;;;;;0.20;0.20;;;8.50;99.90;;;;;;5027033;28;20252;-80
2022/10/01 01:16:21;;;;;;;0.10;0.10;;;8.60;99.90;;;;;;5027140;28;20625;-79
2022/10/01 01:19:03;;;;;;;0.10;0.10;;;8.60;99.90;;;;;;5025546;28;20901;-80
2022/10/01 01:21:30;;;;;;;0.30;0.30;;;8.50;99.90;;;;;;5025159;28;20237;-79
2022/10/01 01:24:31;;;;;;;0.10;0.10;;;8.50;99.90;;;;;;5026853;28;20297;-79
2022/10/01 01:27:22;;;;;;;1.47;1.00;;;8.50;99.90;;;;;;5006502;28;20206;-79
2022/10/01 01:30:15;;;;;;;0.23;0.23;;;8.40;99.90;;;;;;5025983;28;20188;-79
2022/10/01 01:32:52;;;;;;;0.20;0.20;;;8.40;99.90;;;;;;5022346;28;20187;-79
2022/10/01 01:35:30;;;;;;;0.73;0.50;;;8.40;99.90;;;;;;5027577;28;20182;-79
2022/10/01 01:38:05;;;;;;;0.33;0.33;;;8.50;99.90;;;;;;5024283;28;20814;-79
2022/10/01 01:40:35;;;;;;;2.37;0.20;;;8.40;99.90;;;;;;5023810;28;20186;-79
2022/10/01 01:43:04;;;;;;;0.20;0.20;;;8.50;99.90;;;;;;5029133;28;20179;-79
2022/10/01 01:45:31;;;;;;;0.10;0.10;;;8.60;99.90;;;;;;5019729;28;20731;-79
2022/10/01 01:47:59;;;;;;;0.30;0.30;;;8.60;99.90;;;;;;5023783;28;20288;-79
2022/10/01 01:50:28;;;;;;;0.63;0.53;;;8.70;99.90;;;;;;5028786;28;20721;-79
2022/10/01 01:52:55;;;;;;;0.33;0.20;;;8.60;99.90;;;;;;5021990;28;20197;-79
2022/10/01 01:55:23;;;;;;;0.63;0.30;;;8.70;99.90;;;;;;5022768;28;20560;-80
2022/10/01 01:57:50;;;;;;;1.40;0.43;;;8.60;99.90;;;;;;5027541;28;20261;-79
2022/10/01 02:00:15;;;;;;;0.30;0.30;;;8.40;99.90;;;;;;5025554;28;20183;-80
2022/10/01 02:02:48;;;;;;;0.10;0.10;;;8.40;99.90;;;;;;5026238;28;20194;-79
2022/10/01 02:05:19;;;;;;;0.30;0.27;;;8.30;99.90;;;;;;5025557;28;20221;-79
2022/10/01 02:07:54;;;;;;;0.30;0.30;;;8.30;99.90;;;;;;5024599;28;20309;-79
2022/10/01 02:10:41;;;;;;;0.30;0.30;;;8.30;99.90;;;;;;5024061;28;20958;-79
2022/10/01 02:13:27;;;;;;;0.10;0.10;;;8.30;99.90;;;;;;5024136;28;20338;-79
2022/10/01 02:16:26;;;;;;;1.80;1.53;;;8.20;99.90;;;;;;5024335;28;20805;-79
2022/10/01 02:19:26;;;;;;;0.30;0.20;;;8.20;99.90;;;;;;5032777;28;20178;-79
2022/10/01 02:22:04;;;;;;;0.30;0.30;;;8.50;99.90;;;;;;5025216;28;21395;-79
2022/10/01 02:24:40;;;;;;;0.20;0.20;;;8.60;99.90;;;;;;5024296;28;20218;-79
2022/10/01 02:27:15;;;;;;;0.53;0.53;;;8.50;99.90;;;;;;5026483;28;20197;-80
2022/10/01 02:29:44;;;;;;;0.40;0.40;;;8.50;99.90;;;;;;5026966;28;20192;-79
2022/10/01 02:32:11;;;;;;;1.27;0.50;;;8.70;99.90;;;;;;5028686;28;20275;-79
2022/10/01 02:34:38;;;;;;;0.10;0.10;;;8.80;99.90;;;;;;5030320;28;20274;-79
2022/10/01 02:37:06;;;;;;;0.20;0.20;;;8.90;99.90;;;;;;5031020;28;20212;-79
2022/10/01 02:39:33;;;;;;;0.40;0.30;;;8.80;99.90;;;;;;5028163;28;20195;-79
2022/10/01 02:42:01;;;;;;;0.30;0.30;;;8.70;99.90;;;;;;5031030;28;20202;-79
2022/10/01 02:44:36;;;;;;;0.40;0.40;;;8.60;99.90;;;;;;5027807;28;20265;-79
2022/10/01 02:47:20;;;;;;;0.10;0.10;;;8.50;99.90;;;;;;5029169;28;20200;-79
2022/10/01 02:49:47;;;;;;;3.60;3.03;;;8.40;99.90;;;;;;5035564;28;20646;-79
2022/10/01 02:52:24;;;;;;;0.20;0.10;;;8.40;99.90;;;;;;5035130;28;20202;-79
2022/10/01 02:55:03;;;;;;;0.20;0.20;;;8.30;99.90;;;;;;5036436;28;20203;-79
2022/10/01 02:57:29;;;;;;;0.33;0.30;;;8.40;99.90;;;;;;5033603;28;20296;-79
2022/10/01 03:00:02;;;;;;;0.70;0.47;;;8.40;99.90;;;;;;5035060;28;20290;-79
2022/10/01 03:02:30;;;;;;;0.47;0.47;;;8.30;99.90;;;;;;5032845;28;20184;-80
2022/10/01 03:04:56;;;;;;;0.30;0.30;;;8.40;99.90;;;;;;5035193;28;20206;-79
2022/10/01 03:07:22;;;;;;;0.30;0.30;;;8.40;99.90;;;;;;5034154;28;20682;-79
2022/10/01 03:09:48;;;;;;;0.30;0.30;;;8.50;99.90;;;;;;5034854;28;20207;-78
2022/10/01 03:12:15;;;;;;;0.27;0.27;;;8.50;99.90;;;;;;5033520;28;20267;-79
2022/10/01 03:14:43;;;;;;;0.13;0.10;;;8.60;99.90;;;;;;5030633;28;20859;-79
2022/10/01 03:17:09;;;;;;;0.27;0.27;;;8.80;99.90;;;;;;5037081;28;20210;-79
2022/10/01 03:19:35;;;;;;;0.30;0.30;;;8.80;99.90;;;;;;5030673;28;20331;-79
2022/10/01 03:22:01;;;;;;;0.20;0.10;;;8.80;99.90;;;;;;5033231;28;20711;-79
2022/10/01 03:24:27;;;;;;;0.20;0.20;;;8.80;99.90;;;;;;5033193;28;20240;-80
2022/10/01 03:26:54;;;;;;;0.57;0.57;;;8.80;99.90;;;;;;5035546;28;20283;-79
2022/10/01 03:29:20;;;;;;;0.70;0.60;;;8.90;99.90;;;;;;5033130;28;20183;-79
2022/10/01 03:31:45;;;;;;;0.20;0.20;;;8.80;99.90;;;;;;5028248;28;20199;-80
2022/10/01 03:34:12;;;;;;;0.40;0.30;;;8.80;99.90;;;;;;5026017;28;21800;-79
2022/10/01 03:36:38;;;;;;;0.30;0.30;;;8.80;99.90;;;;;;5033262;28;20219;-79
2022/10/01 03:39:03;;;;;;;0.73;0.73;;;8.80;99.90;;;;;;5029714;28;20199;-78
2022/10/01 03:41:29;;;;;;;0.80;0.80;;;8.80;99.90;;;;;;5032673;28;20186;-80
2022/10/01 03:43:54;;;;;;;0.47;0.47;;;8.70;99.90;;;;;;5047381;28;20209;-80
2022/10/01 03:46:20;;;;;;;0.47;0.40;;;8.70;99.90;;;;;;5035312;28;20203;-79
2022/10/01 03:48:46;;;;;;;0.30;0.30;;;8.70;99.90;;;;;;5033250;28;20188;-79
2022/10/01 03:51:11;;;;;;;0.17;0.17;;;8.70;99.90;;;;;;5034528;28;20293;-80
2022/10/01 03:53:37;;;;;;;2.73;0.30;;;8.70;99.90;;;;;;5033018;28;20682;-80
2022/10/01 03:56:03;;;;;;;0.50;0.50;;;8.70;99.90;;;;;;5036295;28;20218;-80
2022/10/01 03:58:29;;;;;;;0.33;0.33;;;8.80;99.90;;;;;;5031360;28;20217;-80
2022/10/01 04:00:54;;;;;;;0.30;0.30;;;8.80;99.90;;;;;;5034017;28;20568;-80
2022/10/01 04:03:20;;;;;;;0.57;0.50;;;8.90;99.90;;;;;;5033445;28;20215;-79
2022/10/01 04:05:46;;;;;;;1.10;0.87;;;8.90;99.90;;;;;;5033480;28;20237;-80
2022/10/01 04:08:12;;;;;;;0.47;0.33;;;9.00;99.90;;;;;;5030989;28;20223;-80
2022/10/01 04:10:38;;;;;;;0.20;0.10;;;9.10;99.90;;;;;;5035047;28;20197;-80
2022/10/01 04:13:05;;;;;;;0.40;0.40;;;9.10;99.90;;;;;;5031747;28;20187;-80
2022/10/01 04:15:31;;;;;;;0.30;0.30;;;9.30;99.90;;;;;;5031948;28;20180;-79
2022/10/01 04:17:57;;;;;;;0.20;0.20;;;9.40;99.90;;;;;;5032756;28;20839;-80
2022/10/01 04:20:23;;;;;;;0.40;0.40;;;9.30;99.90;;;;;;5030137;28;20214;-80
2022/10/01 04:22:49;;;;;;;0.40;0.40;;;9.30;99.90;;;;;;5032498;28;20229;-80
2022/10/01 04:25:14;;;;;;;0.50;0.40;;;9.50;99.90;;;;;;5031402;28;20275;-79
2022/10/01 04:27:41;;;;;;;0.20;0.20;;;9.50;99.90;;;;;;5031139;28;20206;-79
2022/10/01 04:30:08;;;;;;;0.20;0.20;;;9.70;99.90;;;;;;5030464;28;20192;-79
2022/10/01 04:32:36;;;;;;;0.40;0.40;;;9.90;99.90;;;;;;5030860;28;21062;-80
2022/10/01 04:35:03;;;;;;;0.30;0.30;;;10.00;99.90;;;;;;5029262;28;20188;-79
2022/10/01 04:37:29;;;;;;;0.27;0.27;;;10.00;99.90;;;;;;5030548;28;20210;-79
2022/10/01 04:39:55;;;;;;;1.10;0.57;;;10.10;99.90;;;;;;5030973;28;20184;-79
2022/10/01 04:42:22;;;;;;;0.40;0.40;;;10.30;99.90;;;;;;5028480;28;20188;-79
2022/10/01 04:44:47;;;;;;;0.20;0.20;;;10.40;99.90;;;;;;5030943;28;20263;-80
2022/10/01 04:47:13;;;;;;;0.30;0.30;;;10.50;99.90;;;;;;5029988;28;20217;-80
2022/10/01 04:49:38;;;;;;;0.50;0.50;;;10.60;99.90;;;;;;5032829;28;20185;-80
2022/10/01 04:52:04;;;;;;;0.20;0.20;;;10.60;99.90;;;;;;5031014;28;20199;-80
2022/10/01 04:54:30;;;;;;;0.73;0.67;;;10.60;99.90;;;;;;5028458;28;20198;-79
2022/10/01 04:56:57;;;;;;;0.10;0.10;;;10.70;99.90;;;;;;5029622;28;20208;-79
2022/10/01 04:59:22;;;;;;;0.10;0.10;;;10.70;99.90;;;;;;5030495;28;20204;-79
2022/10/01 05:01:48;;;;;;;1.20;0.80;;;10.70;99.90;;;;;;5030283;28;20185;-79
2022/10/01 05:04:14;;;;;;;0.10;0.10;;;10.70;99.90;;;;;;5030056;28;20672;-79
2022/10/01 05:06:40;;;;;;;0.20;0.20;;;10.70;99.90;;;;;;5028391;28;20204;-79
2022/10/01 05:09:05;;;;;;;0.10;0.10;;;10.70;99.90;;;;;;5027662;28;20566;-78
2022/10/01 05:11:33;;;;;;;0.30;0.30;;;10.80;99.90;;;;;;5029084;28;20187;-78
2022/10/01 05:13:58;;;;;;;0.50;0.43;;;10.80;99.90;;;;;;5029408;28;20181;-78
2022/10/01 05:16:24;;;;;;;0.30;0.30;;;10.80;99.90;;;;;;5029850;28;20263;-79
2022/10/01 05:18:50;;;;;;;1.70;0.30;;;10.80;99.90;;;;;;5029700;28;20188;-79
2022/10/01 05:21:15;;;;;;;0.30;0.30;;;10.90;99.90;;;;;;5029520;28;20182;-78
2022/10/01 05:23:41;;;;;;;0.80;0.20;;;10.90;99.90;;;;;;5030621;28;20217;-79
2022/10/01 05:26:07;;;;;;;0.17;0.17;;;10.90;99.90;;;;;;5027966;28;20290;-78
2022/10/01 05:28:33;;;;;;;0.40;0.40;;;10.90;99.90;;;;;;5027857;28;20181;-79
2022/10/01 05:31:00;;;;;;;0.80;0.40;;;10.80;99.90;;;;;;5029511;28;20189;-78
2022/10/01 05:33:26;;;;;;;0.10;0.10;;;10.80;99.90;;;;;;5030425;28;20274;-79
2022/10/01 05:35:52;;;;;;;0.40;0.40;;;10.70;99.90;;;;;;5029813;28;21415;-79
2022/10/01 05:38:18;;;;;;;0.47;0.47;;;10.80;99.90;;;;;;5031629;28;20273;-79
2022/10/01 05:40:46;;;;;;;0.30;0.30;;;10.90;99.90;;;;;;5030427;28;20283;-79
2022/10/01 05:43:13;;;;;;;0.97;0.40;;;10.80;99.90;;;;;;5030621;28;20634;-79
2022/10/01 05:45:38;;;;;;;0.83;0.60;;;10.90;99.90;;;;;;5029262;28;20774;-79
2022/10/01 05:48:06;;;;;;;0.30;0.30;;;10.80;99.90;;;;;;5030369;28;20220;-79
2022/10/01 05:50:34;;;;;;;1.27;1.13;;;10.90;99.90;;;;;;5015158;28;20200;-79
2022/10/01 05:53:00;;;;;;;0.20;0.20;;;10.80;99.90;;;;;;5030648;28;20212;-79
2022/10/01 05:55:30;;;;;;;0.53;0.53;;;10.80;99.90;;;;;;5031344;28;20281;-79
2022/10/01 05:58:01;;;;;;;0.10;0.10;;;10.70;99.90;;;;;;5027888;28;20758;-79
2022/10/01 06:00:28;;;;;;;0.67;0.30;;;10.80;99.90;;;;;;5027930;28;21213;-79
2022/10/01 06:02:58;;;;;;;0.10;0.10;;;10.90;99.90;;;;;;5030888;28;21208;-78
2022/10/01 06:05:24;;;;;;;1.77;1.67;;;11.00;99.90;;;;;;5027765;28;21235;-79
2022/10/01 06:07:50;;;;;;;0.13;0.13;;;11.10;99.90;;;;;;5029551;28;20211;-79
2022/10/01 06:10:17;;;;;;;0.50;0.50;;;11.10;99.90;;;;;;5028122;28;20186;-79
2022/10/01 06:12:43;;;;;;;0.10;0.10;;;11.10;99.90;;;;;;5028233;28;20187;-78
2022/10/01 06:15:10;;;;;;;0.30;0.30;;;11.20;99.90;;;;;;5032156;28;20190;-79
2022/10/01 06:17:36;;;;;;;0.53;0.27;;;11.20;99.90;;;;;;5032437;28;20220;-79
2022/10/01 06:20:01;;;;;;;0.47;0.47;;;11.20;99.90;;;;;;5031390;28;20535;-79
2022/10/01 06:22:27;;;;;;;0.30;0.30;;;11.20;99.90;;;;;;5032620;28;20273;-78
2022/10/01 06:24:53;;;;;;;0.50;0.50;;;11.10;99.90;;;;;;5034326;28;20208;-79
2022/10/01 06:27:18;;;;;;;1.90;0.50;;;11.10;99.90;;;;;;5037251;28;20274;-79
2022/10/01 06:29:44;;;;;;;1.40;1.10;;;11.10;99.90;;;;;;5034529;28;20193;-78
2022/10/01 06:32:12;;;;;;;0.20;0.20;;;11.10;99.90;;;;;;5035644;28;20201;-78
2022/10/01 06:34:38;;;;;;;0.30;0.20;;;11.10;99.90;;;;;;5034587;28;20558;-78
2022/10/01 06:37:04;;;;;;;0.13;0.13;;;11.10;99.90;;;;;;5033662;28;20216;-78
2022/10/01 06:39:30;;;;;;;0.20;0.20;;;11.10;99.90;;;;;;5034872;28;20191;-79
2022/10/01 06:41:55;;;;;;;0.73;0.63;;;11.20;99.90;;;;;;5036724;28;20194;-78
2022/10/01 06:44:21;;;;;;;0.20;0.20;;;11.20;99.90;;;;;;5034923;28;20217;-78
2022/10/01 06:46:46;;;;;;;0.63;0.53;;;11.20;99.90;;;;;;5033663;28;20279;-79
2022/10/01 06:49:12;;;;;;;0.73;0.73;;;11.30;99.90;;;;;;5034097;28;20201;-79
2022/10/01 06:54:23;;;;;;;0.30;0.20;;;11.30;99.90;;;;;;5030636;28;20216;-79
2022/10/01 06:56:48;;;;;;;0.47;0.47;;;11.40;99.90;;;;;;5034506;28;20204;-79
2022/10/01 06:59:14;;;;;;;0.73;0.57;;;11.40;99.90;;;;;;5037416;28;20565;-80
2022/10/01 07:01:39;;;;;;;0.30;0.30;;;11.50;99.90;;;;;;5043292;28;20652;-80
2022/10/01 07:04:05;;;;;;;0.30;0.30;;;11.50;99.90;;;;;;5038297;28;20216;-79
2022/10/01 07:06:31;;;;;;;1.40;0.33;;;11.50;99.90;;;;;;5033990;28;20233;-79
2022/10/01 07:08:57;;;;;;;0.17;0.17;;;11.50;99.90;;;;;;5033852;28;20712;-79
2022/10/01 07:11:23;;;;;;;0.40;0.40;;;11.50;99.90;;;;;;5029096;28;20198;-80
2022/10/01 07:13:49;;;;;;;0.30;0.30;;;11.60;99.90;;;;;;5032533;28;20189;-79
2022/10/01 07:16:15;;;;;;;0.87;0.20;;;11.50;99.90;;;;;;5030858;28;20206;-79
2022/10/01 07:18:40;;;;;;;0.20;0.20;;;11.50;99.90;;;;;;5036372;28;20196;-79
2022/10/01 07:21:06;;;;;;;0.30;0.10;;;11.40;99.90;;;;;;5034742;28;20675;-79
2022/10/01 07:23:32;;;;;;;0.47;0.47;;;11.40;99.90;;;;;;5031041;28;20308;-80
2022/10/01 07:25:57;;;;;;;0.10;0.10;;;11.50;99.90;;;;;;5035910;28;20182;-79
2022/10/01 07:28:24;;;;;;;0.20;0.20;;;11.50;99.90;;;;;;5034514;28;20290;-79
2022/10/01 07:31:10;;;;;;;0.10;0.10;;;11.50;99.90;;;;;;5032985;28;20720;-80
2022/10/01 07:33:38;;;;;;;0.20;0.20;;;11.50;99.90;;;;;;5034939;28;20205;-80
2022/10/01 07:36:06;;;;;;;0.50;0.20;;;11.50;99.90;;;;;;5032953;28;20625;-80
2022/10/01 07:38:33;;;;;;;0.10;0.10;;;11.50;99.90;;;;;;5032957;28;20216;-80
2022/10/01 07:40:58;;;;;;;0.10;0.10;;;11.50;99.90;;;;;;5035706;28;20240;-80
2022/10/01 07:43:24;;;;;;;0.30;0.30;;;11.60;99.90;;;;;;5028275;28;20606;-79
2022/10/01 07:45:51;;;;;;;0.17;0.17;;;11.70;99.90;;;;;;5033898;28;20196;-79
2022/10/01 07:48:18;;;;;;;0.10;0.10;;;11.70;99.90;;;;;;5033535;28;20206;-79
2022/10/01 07:50:44;;;;;;;0.10;0.10;;;11.70;99.90;;;;;;5029740;28;20200;-80
2022/10/01 07:53:10;;;;;;;0.10;0.10;;;11.70;99.90;;;;;;5029682;28;20188;-79
2022/10/01 07:55:36;;;;;;;0.20;0.20;;;11.80;99.90;;;;;;5030848;28;20220;-80
2022/10/01 07:58:03;;;;;;;0.10;0.10;;;11.80;99.90;;;;;;5031760;28;20706;-78
2022/10/01 08:00:31;;;;;;;0.10;0.10;;;11.80;99.90;;;;;;5033780;28;20224;-78
2022/10/01 08:02:57;;;;;;;0.13;0.13;;;11.80;99.90;;;;;;5030645;28;20188;-78
2022/10/01 08:05:31;;;;;;;0.20;0.10;;;11.80;99.90;;;;;;5028824;28;20205;-78
2022/10/01 08:08:02;;;;;;;0.10;0.10;;;11.70;99.90;;;;;;5030944;28;20224;-78
2022/10/01 08:10:28;;;;;;;0.10;0.10;;;11.80;99.90;;;;;;5028681;28;20321;-77
2022/10/01 08:13:07;;;;;;;0.10;0.10;;;11.70;99.90;;;;;;5031830;28;20177;-78
2022/10/01 08:15:33;;;;;;;0.10;0.10;;;11.80;99.90;;;;;;5030885;28;20796;-81
2022/10/01 08:18:03;;;;;;;1.10;0.13;;;11.80;99.90;;;;;;5029435;28;20263;-78
2022/10/01 08:20:29;;;;;;;0.10;0.10;;;11.80;99.90;;;;;;5029789;28;20183;-77
2022/10/01 08:23:01;;;;;;;0.17;0.17;;;11.90;99.90;;;;;;5030177;28;20186;-78
2022/10/01 08:25:27;;;;;;;0.10;0.10;;;11.90;99.90;;;;;;5029523;28;20281;-78
2022/10/01 08:27:52;;;;;;;0.20;0.20;;;12.00;99.90;;;;;;5031173;28;20560;-78
2022/10/01 08:30:18;;;;;;;0.10;0.10;;;11.90;99.90;;;;;;5028438;28;20724;-77
2022/10/01 08:32:43;;;;;;;0.10;0.10;;;11.90;99.90;;;;;;5030932;28;21336;-77
2022/10/01 08:35:09;;;;;;;0.10;0.10;;;11.90;99.90;;;;;;5029437;28;20347;-77
2022/10/01 08:37:34;;;;;;;0.17;0.17;;;11.90;99.90;;;;;;5028647;28;20224;-77
2022/10/01 08:40:00;;;;;;;0.10;0.10;;;11.80;99.90;;;;;;5028349;28;20190;-77
2022/10/01 08:42:35;;;;;;;0.00;0.00;;;11.90;99.90;;;;;;5031200;28;20196;-78
2022/10/01 08:45:08;;;;;;;0.10;0.10;;;11.90;99.90;;;;;;5030201;28;20209;-78
2022/10/01 08:47:39;;;;;;;0.30;0.30;;;12.00;99.90;;;;;;5028740;28;20747;-78
2022/10/01 08:50:27;;;;;;;0.20;0.20;;;11.90;99.90;;;;;;5030576;28;20186;-78
2022/10/01 08:52:58;;;;;;;0.20;0.20;;;12.00;99.90;;;;;;5033716;28;20267;-79
2022/10/01 08:55:27;;;;;;;0.37;0.20;;;12.00;99.90;;;;;;5032516;28;20179;-78
2022/10/01 08:58:00;;;;;;;0.30;0.30;;;12.00;99.90;;;;;;5030361;28;20220;-79
2022/10/01 09:00:27;;;;;;;0.10;0.10;;;12.00;99.90;;;;;;5030392;28;20215;-77
2022/10/01 09:03:03;;;;;;;0.10;0.10;;;12.10;99.90;;;;;;5032271;28;20183;-78
2022/10/01 09:05:50;;;;;;;0.10;0.10;;;12.10;99.90;;;;;;5031295;28;20220;-78
2022/10/01 09:08:47;;;;;;;0.00;0.00;;;12.20;99.90;;;;;;5030888;28;20216;-78
2022/10/01 09:11:32;;;;;;;0.30;0.30;;;12.30;99.90;;;;;;5034299;28;20698;-78
2022/10/01 09:14:17;;;;;;;0.10;0.10;;;12.40;99.90;;;;;;5030070;28;20186;-78
2022/10/01 09:17:15;;;;;;;0.00;0.00;;;12.40;99.90;;;;;;5025409;28;20279;-78
2022/10/01 09:19:44;;;;;;;0.10;0.10;;;12.40;99.90;;;;;;5030635;28;20236;-78
2022/10/01 09:22:18;;;;;;;0.00;0.00;;;12.40;99.90;;;;;;5030745;28;20184;-78
2022/10/01 09:24:49;;;;;;;0.03;0.03;;;12.40;99.90;;;;;;5028762;28;20294;-78
2022/10/01 09:27:17;;;;;;;0.17;0.17;;;12.40;99.90;;;;;;5027321;28;20288;-78
2022/10/01 09:30:01;;;;;;;0.10;0.10;;;12.40;99.90;;;;;;5028502;28;20311;-78
2022/10/01 09:32:37;;;;;;;0.10;0.10;;;12.50;99.90;;;;;;5031941;28;20830;-78
2022/10/01 09:35:30;;;;;;;0.30;0.30;;;12.50;99.90;;;;;;5031959;28;20185;-78
2022/10/01 09:38:16;;;;;;;0.10;0.10;;;12.50;99.90;;;;;;5030967;28;20206;-77
2022/10/01 09:40:46;;;;;;;0.10;0.10;;;12.50;99.90;;;;;;5027461;28;20194;-78
2022/10/01 09:43:11;;;;;;;0.10;0.10;;;12.60;99.90;;;;;;5028574;28;20190;-78
2022/10/01 09:45:38;;;;;;;0.77;0.20;;;12.60;99.90;;;;;;5029972;28;20667;-78
2022/10/01 09:48:25;;;;;;;0.10;0.10;;;12.60;99.90;;;;;;5031239;28;20300;-78
2022/10/01 09:50:57;;;;;;;0.20;0.20;;;12.60;99.90;;;;;;5027850;28;20256;-78
2022/10/01 09:53:34;;;;;;;0.20;0.20;;;12.60;99.90;;;;;;5031598;28;20176;-78
2022/10/01 09:56:24;;;;;;;0.10;0.10;;;12.70;99.90;;;;;;5029539;28;20178;-78
2022/10/01 09:58:54;;;;;;;0.17;0.17;;;12.70;99.90;;;;;;5030245;28;20186;-78
2022/10/01 10:01:44;;;;;;;0.10;0.10;;;12.70;99.90;;;;;;5027009;28;20670;-77
2022/10/01 10:04:10;;;;;;;0.23;0.23;;;12.60;99.90;;;;;;5029044;28;20241;-78
2022/10/01 10:06:37;;;;;;;0.20;0.20;;;12.70;99.90;;;;;;5029490;28;20546;-78
2022/10/01 10:09:03;;;;;;;0.37;0.33;;;12.80;99.90;;;;;;5031079;28;20170;-78
2022/10/01 10:11:31;;;;;;;0.10;0.10;;;12.70;99.90;;;;;;5028720;28;20226;-78
2022/10/01 10:13:59;;;;;;;0.00;0.00;;;12.80;99.90;;;;;;5031062;28;20191;-78
2022/10/01 10:16:26;;;;;;;0.10;0.10;;;12.80;99.90;;;;;;5029872;28;20635;-78
2022/10/01 10:19:02;;;;;;;0.10;0.10;;;12.90;99.90;;;;;;5027268;28;20201;-78
2022/10/01 10:21:32;;;;;;;0.10;0.10;;;12.90;99.90;;;;;;5027218;28;20207;-78
2022/10/01 10:24:00;;;;;;;0.10;0.10;;;13.00;99.90;;;;;;5028821;28;20214;-78
2022/10/01 10:26:33;;;;;;;0.20;0.20;;;13.00;99.90;;;;;;5029694;28;20213;-78
2022/10/01 10:29:01;;;;;;;0.20;0.20;;;13.00;99.90;;;;;;5028212;28;20272;-77
2022/10/01 10:31:34;;;;;;;0.20;0.20;;;13.10;99.90;;;;;;5029415;28;20245;-78
2022/10/01 10:34:37;;;;;;;0.10;0.10;;;13.10;99.90;;;;;;5030441;28;20197;-78
2022/10/01 10:37:12;;;;;;;0.10;0.10;;;13.20;99.90;;;;;;4991222;28;20289;-78
2022/10/01 10:39:40;;;;;;;0.50;0.30;;;13.20;99.90;;;;;;5026528;28;20197;-78
2022/10/01 10:42:07;;;;;;;0.10;0.10;;;13.40;99.90;;;;;;5028500;28;20233;-78
2022/10/01 10:44:38;;;;;;;0.77;0.30;;;13.40;99.90;;;;;;5028928;28;20256;-78
2022/10/01 10:47:10;;;;;;;0.20;0.20;;;13.40;99.90;;;;;;5030127;28;20202;-78
2022/10/01 10:49:58;;;;;;;0.50;0.20;;;13.40;99.90;;;;;;5026219;28;20223;-78
2022/10/01 10:52:35;;;;;;;0.10;0.10;;;13.50;99.90;;;;;;5026002;28;20592;-78
2022/10/01 10:55:21;;;;;;;0.10;0.10;;;13.60;99.90;;;;;;5025768;28;20186;-79
2022/10/01 10:57:47;;;;;;;0.30;0.30;;;13.80;99.90;;;;;;5027278;28;20209;-78
2022/10/01 11:00:17;;;;;;;0.13;0.13;;;13.90;99.90;;;;;;5028895;28;20221;-77
2022/10/01 11:02:56;;;;;;;0.20;0.20;;;13.90;99.90;;;;;;5030014;28;20683;-78
2022/10/01 11:05:38;;;;;;;0.10;0.10;;;13.80;99.90;;;;;;5027679;28;20217;-78
2022/10/01 11:08:06;;;;;;;0.17;0.17;;;13.80;99.90;;;;;;5027641;28;20206;-78
2022/10/01 11:10:37;;;;;;;0.40;0.30;;;13.90;99.90;;;;;;5030801;28;20265;-78
2022/10/01 11:13:49;;;;;;;0.10;0.10;;;14.00;99.90;;;;;;5029752;28;20198;-78
2022/10/01 11:16:32;;;;;;;0.10;0.10;;;14.00;99.90;;;;;;5046447;28;20228;-78
2022/10/01 11:19:22;;;;;;;0.10;0.10;;;14.00;99.90;;;;;;5034480;28;20241;-78
2022/10/01 11:22:04;;;;;;;0.10;0.10;;;14.30;99.90;;;;;;5032330;28;20203;-78
2022/10/01 11:24:44;;;;;;;0.03;0.03;;;14.50;99.90;;;;;;5034166;28;20205;-78
2022/10/01 11:27:16;;;;;;;0.30;0.30;;;14.40;99.90;;;;;;5031509;28;20201;-78
2022/10/01 11:29:53;;;;;;;0.43;0.43;;;14.40;99.90;;;;;;5033253;28;20185;-78
2022/10/01 11:32:44;;;;;;;0.20;0.10;;;14.40;99.90;;;;;;5029686;28;20190;-78
2022/10/01 11:35:36;;;;;;;0.30;0.20;;;14.60;99.90;;;;;;5029299;28;20206;-78
2022/10/01 11:38:07;;;;;;;0.20;0.20;;;14.70;99.90;;;;;;5032240;28;20211;-78
2022/10/01 11:40:42;;;;;;;0.20;0.20;;;14.80;99.90;;;;;;5030863;28;20183;-78
2022/10/01 11:43:22;;;;;;;0.10;0.10;;;14.90;99.90;;;;;;5030971;28;20193;-78
2022/10/01 11:45:52;;;;;;;0.30;0.30;;;15.00;99.90;;;;;;5030968;28;20855;-77
2022/10/01 11:48:32;;;;;;;2.13;0.33;;;15.10;99.90;;;;;;5034330;28;20221;-78
2022/10/01 11:51:07;;;;;;;0.83;0.50;;;15.20;99.90;;;;;;5031276;28;20204;-78
2022/10/01 11:53:42;;;;;;;0.53;0.43;;;15.30;99.90;;;;;;5033365;28;20910;-78
2022/10/01 11:59:23;;;;;;;0.10;0.10;;;15.30;99.90;;;;;;5036110;28;20230;-78
2022/10/01 12:02:24;;;;;;;0.10;0.10;;;15.40;99.90;;;;;;5033926;28;20199;-78
2022/10/01 12:05:10;;;;;;;0.20;0.20;;;15.40;99.90;;;;;;5033203;28;20207;-78
2022/10/01 12:08:08;;;;;;;0.30;0.30;;;15.40;99.90;;;;;;5029236;28;20299;-78
2022/10/01 12:10:39;;;;;;;0.23;0.23;;;15.30;99.90;;;;;;5034246;28;20274;-78
2022/10/01 12:13:24;;;;;;;0.10;0.10;;;15.40;99.90;;;;;;5031957;28;20743;-78
2022/10/01 12:15:56;;;;;;;0.10;0.10;;;15.70;99.90;;;;;;5033181;28;20284;-79
2022/10/01 12:18:39;;;;;;;0.10;0.10;;;15.70;99.90;;;;;;5028475;28;20311;-79
2022/10/01 12:21:19;;;;;;;0.10;0.10;;;15.80;99.90;;;;;;5029041;28;20654;-78
2022/10/01 12:23:52;;;;;;;0.20;0.20;;;15.90;99.90;;;;;;5030254;28;20215;-78
2022/10/01 12:26:56;;;;;;;0.10;0.10;;;15.80;99.90;;;;;;5031757;28;20263;-79
2022/10/01 12:29:38;;;;;;;0.17;0.17;;;15.70;99.90;;;;;;5031338;28;20322;-78
2022/10/01 12:32:17;;;;;;;0.10;0.10;;;15.90;99.90;;;;;;5029918;28;20223;-78
2022/10/01 12:34:42;;;;;;;0.10;0.10;;;16.00;99.90;;;;;;5033508;28;20261;-78
2022/10/01 12:37:30;;;;;;;0.23;0.23;;;16.30;99.90;;;;;;5027844;28;20850;-78
2022/10/01 12:40:34;;;;;;;0.40;0.20;;;16.40;99.90;;;;;;5032600;28;20190;-78
2022/10/01 12:43:19;;;;;;;0.10;0.10;;;16.60;99.90;;;;;;5030158;28;20200;-79
2022/10/01 12:46:01;;;;;;;0.20;0.20;;;16.80;99.90;;;;;;5031870;28;20229;-79
2022/10/01 12:48:41;;;;;;;0.10;0.10;;;16.60;99.90;;;;;;5030570;28;20186;-79
2022/10/01 12:51:28;;;;;;;0.20;0.20;;;16.40;99.90;;;;;;5030160;28;20200;-79
2022/10/01 12:54:20;;;;;;;0.30;0.30;;;16.40;99.90;;;;;;5029151;28;20729;-79
2022/10/01 12:57:06;;;;;;;0.10;0.10;;;16.40;99.90;;;;;;5030606;28;20217;-79
2022/10/01 12:59:39;;;;;;;0.20;0.20;;;16.50;99.90;;;;;;5030287;28;20725;-79
2022/10/01 13:02:26;;;;;;;0.37;0.37;;;16.50;99.90;;;;;;5033842;28;20203;-80
2022/10/01 13:05:07;;;;;;;0.10;0.10;;;16.70;99.90;;;;;;5033303;28;20213;-79
2022/10/01 13:07:58;;;;;;;0.37;0.23;;;16.80;99.90;;;;;;5030668;28;20237;-80
2022/10/01 13:10:42;;;;;;;0.10;0.10;;;16.80;99.90;;;;;;5030322;28;20192;-79
2022/10/01 13:13:20;;;;;;;0.20;0.20;;;16.80;99.90;;;;;;5032395;28;20189;-78
2022/10/01 13:15:51;;;;;;;0.10;0.10;;;16.90;99.90;;;;;;5029596;28;20690;-79
2022/10/01 13:18:40;;;;;;;0.20;0.20;;;17.10;99.90;;;;;;5034401;28;20221;-78
2022/10/01 13:21:31;;;;;;;0.20;0.20;;;17.10;99.90;;;;;;5031761;28;20282;-78